Time;durP1;ratioP1;P1;durP2;ratioP2;P2;SDS_P1;SDS_P2;PMS_P1;PMS_P2;Temp;Humidity;BMP_temperature;BMP_pressure;BME280_temperature;BME280_humidity;BME280_pressure;Samples;Min_cycle;Max_cycle;Signal;HPM_P1;HPM_P2
2022/08/08 00:02:08;;;;;;;2.03;1.80;;;;;;;;;;5054285;28;20028;-79
2022/08/08 00:04:37;;;;;;;3.72;1.95;;;;;;;;;;5071980;28;20378;-80
2022/08/08 00:07:18;;;;;;;2.03;1.92;;;;;;;;;;5061633;28;20017;-79
2022/08/08 00:10:17;;;;;;;2.78;1.77;;;;;;;;;;5071084;28;20482;-80
2022/08/08 00:13:01;;;;;;;1.92;1.75;;;;;;;;;;5048537;28;20546;-79
2022/08/08 00:15:30;;;;;;;2.20;1.90;;;;;;;;;;5087194;28;20025;-78
2022/08/08 00:18:02;;;;;;;2.30;2.10;;;;;;;;;;5087616;28;20085;-79
2022/08/08 00:20:42;;;;;;;3.25;1.90;;;;;;;;;;5087826;28;20036;-80
2022/08/08 00:23:14;;;;;;;1.90;1.80;;;;;;;;;;5070592;28;20021;-80
2022/08/08 00:25:42;;;;;;;2.13;1.83;;;;;;;;;;5086900;28;20036;-79
2022/08/08 00:28:11;;;;;;;2.22;2.00;;;;;;;;;;5070442;28;20032;-79
2022/08/08 00:30:39;;;;;;;1.77;1.67;;;;;;;;;;5070328;28;20098;-79
2022/08/08 00:33:08;;;;;;;2.45;2.00;;;;;;;;;;5070912;28;20025;-79
2022/08/08 00:35:40;;;;;;;2.03;1.85;;;;;;;;;;5087596;28;20036;-78
2022/08/08 00:38:22;;;;;;;2.40;1.60;;;;;;;;;;5087664;28;20027;-79
2022/08/08 00:41:03;;;;;;;2.60;1.80;;;;;;;;;;5072048;28;20020;-79
2022/08/08 00:43:38;;;;;;;2.28;2.08;;;;;;;;;;5070650;28;20448;-79
2022/08/08 00:46:23;;;;;;;2.35;2.15;;;;;;;;;;5085883;28;20029;-80
2022/08/08 00:49:08;;;;;;;2.47;2.00;;;;;;;;;;5062844;28;20067;-80
2022/08/08 00:51:34;;;;;;;2.65;1.65;;;;;;;;;;5066327;28;20032;-80
2022/08/08 00:54:29;;;;;;;2.15;1.95;;;;;;;;;;5067027;28;20025;-79
2022/08/08 00:57:05;;;;;;;3.30;1.90;;;;;;;;;;5066865;28;20491;-80
2022/08/08 00:59:31;;;;;;;2.03;1.83;;;;;;;;;;5067393;28;20100;-80
2022/08/08 01:02:19;;;;;;;2.20;2.00;;;;;;;;;;5069415;28;20175;-80
2022/08/08 01:05:07;;;;;;;2.33;2.13;;;;;;;;;;5051917;28;20031;-79
2022/08/08 01:07:36;;;;;;;2.05;1.85;;;;;;;;;;5070897;28;20021;-79
2022/08/08 01:10:28;;;;;;;2.40;1.88;;;;;;;;;;5071276;28;20486;-81
2022/08/08 01:13:20;;;;;;;1.95;1.80;;;;;;;;;;5053716;28;20028;-79
2022/08/08 01:16:04;;;;;;;1.90;1.65;;;;;;;;;;5039530;28;20024;-79
2022/08/08 01:18:31;;;;;;;1.80;1.67;;;;;;;;;;5065623;28;20032;-79
2022/08/08 01:20:56;;;;;;;2.33;1.88;;;;;;;;;;5056973;28;20024;-79
2022/08/08 01:23:38;;;;;;;2.42;2.08;;;;;;;;;;5075011;28;20020;-78
2022/08/08 01:26:15;;;;;;;3.08;1.95;;;;;;;;;;5057437;28;20033;-81
2022/08/08 01:29:00;;;;;;;2.35;1.70;;;;;;;;;;5071092;28;20024;-79
2022/08/08 01:31:41;;;;;;;2.00;1.80;;;;;;;;;;5072931;28;20098;-80
2022/08/08 01:34:19;;;;;;;4.50;1.88;;;;;;;;;;5072206;28;20040;-79
2022/08/08 01:36:45;;;;;;;2.38;1.77;;;;;;;;;;5070479;28;20025;-79
2022/08/08 01:39:26;;;;;;;1.90;1.70;;;;;;;;;;5054831;28;20032;-79
2022/08/08 01:42:03;;;;;;;2.40;1.88;;;;;;;;;;5090017;28;20040;-79
2022/08/08 01:44:32;;;;;;;2.00;1.90;;;;;;;;;;5075000;28;20078;-79
2022/08/08 01:47:04;;;;;;;2.10;1.90;;;;;;;;;;5074061;28;20052;-79
2022/08/08 01:49:36;;;;;;;2.30;2.10;;;;;;;;;;5074832;28;20494;-80
2022/08/08 01:52:21;;;;;;;2.10;1.90;;;;;;;;;;5089137;28;20035;-79
2022/08/08 01:55:06;;;;;;;2.15;1.95;;;;;;;;;;5090278;28;20024;-79
2022/08/08 01:57:37;;;;;;;2.40;1.98;;;;;;;;;;5089772;28;20444;-80
2022/08/08 02:00:19;;;;;;;2.60;2.10;;;;;;;;;;5090552;28;20029;-80
2022/08/08 02:02:56;;;;;;;2.53;1.98;;;;;;;;;;5088934;28;20486;-79
2022/08/08 02:05:21;;;;;;;3.08;2.08;;;;;;;;;;5074501;28;20028;-79
2022/08/08 02:08:03;;;;;;;3.40;2.10;;;;;;;;;;5088614;28;20025;-79
2022/08/08 02:10:47;;;;;;;1.98;1.77;;;;;;;;;;5073147;28;20498;-81
2022/08/08 02:13:32;;;;;;;2.88;1.70;;;;;;;;;;5089475;28;20025;-79
2022/08/08 02:15:58;;;;;;;2.15;1.88;;;;;;;;;;5074759;28;20056;-79
2022/08/08 02:18:36;;;;;;;3.08;1.85;;;;;;;;;;5089774;28;20051;-79
2022/08/08 02:24:04;;;;;;;3.63;1.73;;;;;;;;;;5073988;28;20456;-80
2022/08/08 02:26:32;;;;;;;2.05;1.88;;;;;;;;;;5054643;28;20027;-79
2022/08/08 02:29:17;;;;;;;1.98;1.70;;;;;;;;;;5073866;28;20104;-79
2022/08/08 02:31:55;;;;;;;2.08;1.88;;;;;;;;;;5071083;28;20060;-79
2022/08/08 02:34:33;;;;;;;3.25;1.98;;;;;;;;;;5066691;28;20199;-79
2022/08/08 02:36:59;;;;;;;2.08;1.90;;;;;;;;;;5055963;28;20036;-80
2022/08/08 02:39:29;;;;;;;2.55;1.95;;;;;;;;;;5073685;28;20089;-78
2022/08/08 02:42:14;;;;;;;3.60;1.90;;;;;;;;;;5073823;28;20029;-79
2022/08/08 02:44:56;;;;;;;2.00;1.80;;;;;;;;;;5073639;28;20016;-79
2022/08/08 02:47:31;;;;;;;2.47;1.80;;;;;;;;;;5055813;28;20024;-80
2022/08/08 02:50:23;;;;;;;1.85;1.63;;;;;;;;;;5055654;28;20032;-79
2022/08/08 02:53:08;;;;;;;2.20;1.90;;;;;;;;;;5051833;28;20041;-79
2022/08/08 02:56:02;;;;;;;2.20;2.00;;;;;;;;;;5062242;28;20382;-79
2022/08/08 02:58:46;;;;;;;2.40;1.80;;;;;;;;;;5054715;28;20025;-79
2022/08/08 03:01:30;;;;;;;1.80;1.70;;;;;;;;;;5052201;28;20033;-79
2022/08/08 03:04:09;;;;;;;2.50;2.00;;;;;;;;;;5049891;28;20032;-79
2022/08/08 03:06:41;;;;;;;2.10;1.92;;;;;;;;;;5056796;28;20130;-79
2022/08/08 03:09:10;;;;;;;3.83;2.00;;;;;;;;;;5055153;28;20056;-80
2022/08/08 03:11:58;;;;;;;2.35;2.03;;;;;;;;;;5055253;28;20040;-79
2022/08/08 03:14:36;;;;;;;2.15;1.85;;;;;;;;;;5073171;28;20264;-79
2022/08/08 03:17:02;;;;;;;2.70;2.28;;;;;;;;;;5055352;28;20490;-79
2022/08/08 03:19:47;;;;;;;2.67;2.05;;;;;;;;;;5055803;28;20024;-80
2022/08/08 03:22:12;;;;;;;1.92;1.83;;;;;;;;;;5072900;28;20035;-80
2022/08/08 03:24:38;;;;;;;2.25;2.05;;;;;;;;;;5070665;28;20044;-80
2022/08/08 03:27:23;;;;;;;3.10;2.08;;;;;;;;;;5055031;28;20050;-80
2022/08/08 03:29:52;;;;;;;2.33;2.13;;;;;;;;;;5072969;28;20032;-78
2022/08/08 03:35:04;;;;;;;2.70;1.92;;;;;;;;;;5072537;28;20579;-79
2022/08/08 03:37:30;;;;;;;2.00;1.83;;;;;;;;;;5072556;28;20477;-79
2022/08/08 03:39:58;;;;;;;2.55;2.13;;;;;;;;;;5087777;28;20383;-79
2022/08/08 03:42:24;;;;;;;2.53;2.10;;;;;;;;;;5087811;28;20504;-79
2022/08/08 03:44:50;;;;;;;2.47;2.10;;;;;;;;;;5088457;28;20115;-79
2022/08/08 03:47:20;;;;;;;2.17;2.05;;;;;;;;;;5069882;28;20437;-80
2022/08/08 03:49:47;;;;;;;2.38;2.17;;;;;;;;;;5072358;28;20131;-79
2022/08/08 03:52:13;;;;;;;3.30;2.20;;;;;;;;;;5086940;28;20021;-80
2022/08/08 03:54:41;;;;;;;2.78;2.42;;;;;;;;;;5088182;28;20036;-79
2022/08/08 03:57:15;;;;;;;2.97;2.28;;;;;;;;;;5087639;28;20478;-80
2022/08/08 03:59:41;;;;;;;2.35;2.15;;;;;;;;;;5088088;28;20086;-80
2022/08/08 04:02:18;;;;;;;2.53;2.10;;;;;;;;;;5085564;28;20082;-79
2022/08/08 04:04:44;;;;;;;2.67;2.25;;;;;;;;;;5054597;28;20036;-79
2022/08/08 04:07:10;;;;;;;4.32;2.40;;;;;;;;;;5052800;28;20051;-79
2022/08/08 04:09:37;;;;;;;3.17;2.40;;;;;;;;;;5087031;28;20028;-79
2022/08/08 04:12:03;;;;;;;2.67;2.30;;;;;;;;;;5071041;28;20344;-78
2022/08/08 04:14:29;;;;;;;3.05;2.10;;;;;;;;;;5087707;28;20033;-78
2022/08/08 04:16:55;;;;;;;3.42;1.98;;;;;;;;;;5086922;28;20034;-79
2022/08/08 04:19:21;;;;;;;3.45;2.75;;;;;;;;;;5072398;28;20474;-79
2022/08/08 04:21:47;;;;;;;5.00;2.50;;;;;;;;;;5070956;28;20745;-78
2022/08/08 04:24:13;;;;;;;3.10;2.30;;;;;;;;;;5072008;28;20124;-78
2022/08/08 04:26:39;;;;;;;5.60;2.58;;;;;;;;;;5050911;28;20093;-78
2022/08/08 04:29:05;;;;;;;3.28;2.22;;;;;;;;;;5071782;28;20064;-79
2022/08/08 04:31:31;;;;;;;2.25;1.95;;;;;;;;;;5074969;28;20060;-80
2022/08/08 04:33:57;;;;;;;3.22;2.40;;;;;;;;;;5049642;28;20037;-80
2022/08/08 04:36:25;;;;;;;3.13;2.20;;;;;;;;;;5065842;28;20040;-78
2022/08/08 04:38:51;;;;;;;2.33;2.13;;;;;;;;;;5043930;28;20032;-79
2022/08/08 04:41:17;;;;;;;2.92;2.50;;;;;;;;;;5071554;28;20025;-78
2022/08/08 04:43:43;;;;;;;4.25;2.42;;;;;;;;;;5059593;28;20429;-80
2022/08/08 04:46:09;;;;;;;2.58;2.22;;;;;;;;;;5040456;28;20075;-79
2022/08/08 04:48:35;;;;;;;3.58;2.55;;;;;;;;;;5053489;28;20419;-78
2022/08/08 04:51:01;;;;;;;4.32;2.53;;;;;;;;;;5071830;28;20071;-78
2022/08/08 04:53:27;;;;;;;2.83;2.20;;;;;;;;;;5075784;28;20478;-79
2022/08/08 04:55:53;;;;;;;2.60;2.40;;;;;;;;;;5056848;28;20378;-78
2022/08/08 04:58:19;;;;;;;3.65;2.55;;;;;;;;;;5073654;28;20073;-79
2022/08/08 05:00:45;;;;;;;2.60;2.35;;;;;;;;;;5090307;28;20056;-79
2022/08/08 05:03:11;;;;;;;2.92;2.63;;;;;;;;;;5091290;28;20098;-79
2022/08/08 05:05:37;;;;;;;2.88;2.50;;;;;;;;;;5090355;28;20162;-79
2022/08/08 05:08:03;;;;;;;3.85;2.30;;;;;;;;;;5090034;28;20456;-80
2022/08/08 05:10:29;;;;;;;4.00;2.60;;;;;;;;;;5090576;28;20036;-79
2022/08/08 05:12:57;;;;;;;2.90;2.35;;;;;;;;;;5074310;28;20070;-80
2022/08/08 05:15:23;;;;;;;3.28;2.50;;;;;;;;;;5091385;28;20048;-78
2022/08/08 05:17:49;;;;;;;2.90;2.58;;;;;;;;;;5075124;28;20342;-79
2022/08/08 05:20:15;;;;;;;3.13;2.72;;;;;;;;;;5091260;28;20389;-80
2022/08/08 05:22:41;;;;;;;3.55;2.78;;;;;;;;;;5073615;28;20032;-79
2022/08/08 05:25:08;;;;;;;3.03;2.67;;;;;;;;;;5075093;28;20053;-80
2022/08/08 05:27:34;;;;;;;3.05;2.70;;;;;;;;;;5088917;28;20028;-79
2022/08/08 05:30:00;;;;;;;2.65;2.45;;;;;;;;;;5089930;28;20036;-78
2022/08/08 05:32:26;;;;;;;4.05;2.65;;;;;;;;;;5089481;28;20021;-79
2022/08/08 05:34:52;;;;;;;3.20;2.88;;;;;;;;;;5090039;28;20017;-79
2022/08/08 05:37:22;;;;;;;3.25;2.95;;;;;;;;;;5090816;28;20020;-79
2022/08/08 05:39:52;;;;;;;3.63;3.28;;;;;;;;;;5090690;28;20077;-79
2022/08/08 05:42:18;;;;;;;4.22;3.17;;;;;;;;;;5087091;28;20013;-79
2022/08/08 05:44:46;;;;;;;3.70;3.40;;;;;;;;;;5089943;28;20029;-79
2022/08/08 05:47:12;;;;;;;5.32;3.92;;;;;;;;;;5087781;28;20118;-81
2022/08/08 05:49:40;;;;;;;3.90;3.47;;;;;;;;;;5090562;28;20032;-79
2022/08/08 05:52:06;;;;;;;6.35;3.80;;;;;;;;;;5072084;28;20024;-80
2022/08/08 05:54:32;;;;;;;5.38;4.07;;;;;;;;;;5090067;28;20459;-81
2022/08/08 05:56:59;;;;;;;3.90;3.60;;;;;;;;;;5074563;28;20044;-80
2022/08/08 05:59:25;;;;;;;5.03;3.72;;;;;;;;;;5074776;28;20044;-79
2022/08/08 06:01:55;;;;;;;5.28;3.75;;;;;;;;;;5054454;28;20032;-79
2022/08/08 06:04:28;;;;;;;5.13;3.88;;;;;;;;;;5044842;28;20475;-79
2022/08/08 06:06:55;;;;;;;4.55;3.83;;;;;;;;;;5060239;28;20021;-78
2022/08/08 06:09:27;;;;;;;5.82;4.18;;;;;;;;;;5056309;28;20036;-79
2022/08/08 06:11:56;;;;;;;6.63;4.30;;;;;;;;;;5041957;28;20501;-78
2022/08/08 06:14:26;;;;;;;4.57;4.07;;;;;;;;;;5043553;28;20025;-79
2022/08/08 06:16:54;;;;;;;5.47;4.65;;;;;;;;;;5056094;28;20028;-80
2022/08/08 06:19:20;;;;;;;5.25;4.72;;;;;;;;;;5036474;28;20024;-80
2022/08/08 06:21:48;;;;;;;5.85;5.22;;;;;;;;;;5037000;28;20426;-79
2022/08/08 06:24:14;;;;;;;6.35;4.80;;;;;;;;;;5089601;28;20055;-79
2022/08/08 06:26:42;;;;;;;7.85;4.93;;;;;;;;;;5087997;28;20020;-78
2022/08/08 06:29:08;;;;;;;;;;;;;;;;;;5089122;28;20356;-79
2022/08/08 06:31:35;;;;;;;7.22;4.70;;;;;;;;;;5054368;28;19958;-79
2022/08/08 06:34:21;;;;;;;7.93;5.03;;;;;;;;;;5054268;28;20072;-79
2022/08/08 06:36:50;;;;;;;6.25;5.03;;;;;;;;;;5080072;28;20356;-79
2022/08/08 06:39:16;;;;;;;5.78;4.78;;;;;;;;;;5073738;28;20033;-79
2022/08/08 06:41:45;;;;;;;7.47;4.85;;;;;;;;;;5055123;28;20145;-79
2022/08/08 06:44:14;;;;;;;7.38;4.47;;;;;;;;;;5088472;28;20028;-79
2022/08/08 06:46:40;;;;;;;5.40;4.60;;;;;;;;;;5088167;28;20028;-79
2022/08/08 06:49:06;;;;;;;6.10;5.20;;;;;;;;;;5072688;28;20113;-79
2022/08/08 06:51:32;;;;;;;7.07;4.95;;;;;;;;;;5088829;28;20337;-79
2022/08/08 06:53:59;;;;;;;7.90;4.68;;;;;;;;;;5073496;28;20012;-79
2022/08/08 06:56:25;;;;;;;5.75;4.15;;;;;;;;;;5088614;28;20264;-79
2022/08/08 06:58:51;;;;;;;5.35;4.60;;;;;;;;;;5089313;28;20099;-79
2022/08/08 07:01:18;;;;;;;5.60;4.43;;;;;;;;;;5089260;28;20476;-81
2022/08/08 07:03:44;;;;;;;6.07;4.80;;;;;;;;;;5072271;28;20497;-78
2022/08/08 07:06:12;;;;;;;6.38;4.18;;;;;;;;;;5072336;28;20025;-78
2022/08/08 07:08:39;;;;;;;5.80;4.30;;;;;;;;;;5072499;28;20028;-79
2022/08/08 07:11:07;;;;;;;6.68;4.65;;;;;;;;;;5086809;28;20020;-80
2022/08/08 07:13:37;;;;;;;5.15;4.18;;;;;;;;;;5085319;28;20028;-79
2022/08/08 07:16:04;;;;;;;6.38;4.47;;;;;;;;;;5086196;28;20028;-79
2022/08/08 07:18:47;;;;;;;5.75;4.40;;;;;;;;;;5086864;28;20463;-79
2022/08/08 07:21:14;;;;;;;5.43;4.50;;;;;;;;;;5072766;28;20356;-78
2022/08/08 07:23:49;;;;;;;5.10;4.53;;;;;;;;;;5054593;28;20502;-79
2022/08/08 07:26:16;;;;;;;6.40;3.85;;;;;;;;;;5072917;28;20027;-78
2022/08/08 07:28:43;;;;;;;7.57;4.63;;;;;;;;;;5050895;28;20128;-79
2022/08/08 07:31:09;;;;;;;5.45;4.53;;;;;;;;;;5086785;28;20146;-79
2022/08/08 07:33:35;;;;;;;5.47;4.38;;;;;;;;;;5087332;28;20029;-79
2022/08/08 07:36:04;;;;;;;7.60;5.47;;;;;;;;;;5087295;28;20055;-78
2022/08/08 07:38:31;;;;;;;5.63;5.13;;;;;;;;;;5072122;28;20071;-79
2022/08/08 07:41:00;;;;;;;6.75;5.93;;;;;;;;;;5068818;28;20025;-78
2022/08/08 07:43:28;;;;;;;7.35;5.75;;;;;;;;;;5072161;28;20306;-79
2022/08/08 07:45:54;;;;;;;7.90;5.97;;;;;;;;;;5087439;28;20058;-79
2022/08/08 07:48:20;;;;;;;8.20;5.90;;;;;;;;;;5086613;28;20056;-80
2022/08/08 07:50:47;;;;;;;9.20;5.57;;;;;;;;;;5071164;28;20112;-80
2022/08/08 07:53:20;;;;;;;9.02;6.35;;;;;;;;;;5070654;28;20020;-79
2022/08/08 07:55:48;;;;;;;8.35;6.32;;;;;;;;;;5072163;28;20060;-79
2022/08/08 07:58:31;;;;;;;7.28;6.13;;;;;;;;;;5072613;28;20029;-78
2022/08/08 08:01:05;;;;;;;7.85;6.35;;;;;;;;;;5072632;28;20013;-80
2022/08/08 08:03:34;;;;;;;9.90;5.90;;;;;;;;;;5087182;28;20524;-80
2022/08/08 08:06:00;;;;;;;7.25;5.75;;;;;;;;;;5050841;28;20094;-80
2022/08/08 08:08:31;;;;;;;6.93;5.90;;;;;;;;;;5052920;28;20024;-78
2022/08/08 08:10:57;;;;;;;8.27;6.22;;;;;;;;;;5087736;28;20074;-79
2022/08/08 08:13:26;;;;;;;6.65;5.95;;;;;;;;;;5086557;28;20051;-79
2022/08/08 08:16:00;;;;;;;8.68;5.90;;;;;;;;;;5077229;28;20127;-78
2022/08/08 08:18:28;;;;;;;7.53;6.72;;;;;;;;;;5052409;28;20031;-78
2022/08/08 08:20:54;;;;;;;9.65;5.97;;;;;;;;;;5053384;28;20017;-79
2022/08/08 08:23:20;;;;;;;6.03;5.15;;;;;;;;;;5057301;28;20017;-80
2022/08/08 08:25:46;;;;;;;6.57;5.53;;;;;;;;;;5069735;28;20039;-78
2022/08/08 08:28:12;;;;;;;7.28;5.70;;;;;;;;;;5067231;28;20033;-79
2022/08/08 08:30:38;;;;;;;7.85;6.10;;;;;;;;;;5084650;28;20044;-79
2022/08/08 08:33:04;;;;;;;9.10;4.82;;;;;;;;;;5074101;28;20025;-79
2022/08/08 08:35:30;;;;;;;8.68;5.60;;;;;;;;;;5087159;28;20428;-79
2022/08/08 08:37:56;;;;;;;5.97;4.70;;;;;;;;;;5053373;28;20021;-79
2022/08/08 08:40:23;;;;;;;8.57;4.50;;;;;;;;;;5059349;28;20378;-79
2022/08/08 08:42:49;;;;;;;6.28;5.28;;;;;;;;;;5069254;28;20035;-81
2022/08/08 08:45:15;;;;;;;7.30;5.15;;;;;;;;;;5063820;28;20016;-78
2022/08/08 08:47:43;;;;;;;5.65;4.80;;;;;;;;;;5087290;28;20025;-79
2022/08/08 08:50:09;;;;;;;5.60;4.35;;;;;;;;;;5052903;28;20043;-79
2022/08/08 08:52:36;;;;;;;4.82;3.75;;;;;;;;;;5086755;28;20111;-79
2022/08/08 08:55:02;;;;;;;8.60;4.90;;;;;;;;;;5086079;28;20029;-80
2022/08/08 08:57:29;;;;;;;5.50;4.85;;;;;;;;;;5084091;28;20021;-80
2022/08/08 08:59:57;;;;;;;5.68;3.78;;;;;;;;;;5053596;28;20020;-78
2022/08/08 09:02:25;;;;;;;5.68;4.57;;;;;;;;;;5080021;28;20467;-79
2022/08/08 09:04:54;;;;;;;5.07;4.57;;;;;;;;;;5068237;28;20025;-79
2022/08/08 09:07:23;;;;;;;6.95;4.15;;;;;;;;;;5052869;28;20028;-78
2022/08/08 09:09:50;;;;;;;5.28;3.97;;;;;;;;;;5067692;28;20056;-79
2022/08/08 09:12:17;;;;;;;5.28;3.42;;;;;;;;;;5085812;28;20552;-78
2022/08/08 09:14:48;;;;;;;5.32;4.65;;;;;;;;;;5085284;28;20115;-79
2022/08/08 09:17:16;;;;;;;5.32;4.00;;;;;;;;;;5087197;28;20028;-80
2022/08/08 09:19:42;;;;;;;5.20;3.78;;;;;;;;;;5070546;28;20382;-80
2022/08/08 09:22:09;;;;;;;4.53;3.20;;;;;;;;;;5087493;28;20017;-79
2022/08/08 09:24:35;;;;;;;3.58;2.65;;;;;;;;;;5071354;28;20049;-80
2022/08/08 09:27:07;;;;;;;4.05;2.95;;;;;;;;;;5086429;28;20020;-79
2022/08/08 09:29:42;;;;;;;4.95;3.97;;;;;;;;;;5085892;28;20474;-80
2022/08/08 09:32:10;;;;;;;5.55;3.22;;;;;;;;;;5084666;28;20021;-80
2022/08/08 09:34:38;;;;;;;3.45;2.80;;;;;;;;;;5058898;28;20036;-78
2022/08/08 09:37:08;;;;;;;3.50;2.90;;;;;;;;;;5072545;28;20068;-79
2022/08/08 09:39:59;;;;;;;5.25;3.25;;;;;;;;;;5087976;28;20490;-79
2022/08/08 09:42:31;;;;;;;4.38;3.10;;;;;;;;;;5073975;28;20478;-79
2022/08/08 09:45:08;;;;;;;3.92;2.95;;;;;;;;;;5090693;28;20025;-80
2022/08/08 09:47:38;;;;;;;3.22;2.55;;;;;;;;;;5071947;28;20021;-79
2022/08/08 09:50:05;;;;;;;3.58;1.90;;;;;;;;;;5090023;28;20390;-79
2022/08/08 09:52:33;;;;;;;3.25;2.50;;;;;;;;;;5089753;28;20094;-79
2022/08/08 09:54:59;;;;;;;3.63;2.97;;;;;;;;;;5090325;28;20115;-79
2022/08/08 09:57:33;;;;;;;3.60;3.28;;;;;;;;;;5073318;28;20059;-78
2022/08/08 09:59:59;;;;;;;5.65;2.80;;;;;;;;;;5070157;28;20107;-78
2022/08/08 10:02:32;;;;;;;4.65;2.47;;;;;;;;;;5072995;28;20067;-78
2022/08/08 10:05:17;;;;;;;2.97;2.20;;;;;;;;;;5090067;28;20413;-80
2022/08/08 10:07:45;;;;;;;2.90;2.20;;;;;;;;;;5087577;28;20037;-78
2022/08/08 10:10:11;;;;;;;4.93;3.42;;;;;;;;;;5072191;28;20490;-78
2022/08/08 10:12:38;;;;;;;2.75;2.10;;;;;;;;;;5085944;28;20404;-80
2022/08/08 10:15:05;;;;;;;2.88;2.08;;;;;;;;;;5083061;28;20021;-79
2022/08/08 10:17:32;;;;;;;2.47;2.25;;;;;;;;;;5054373;28;20544;-79
2022/08/08 10:19:59;;;;;;;3.22;2.30;;;;;;;;;;5068575;28;20107;-79
2022/08/08 10:22:29;;;;;;;2.58;2.00;;;;;;;;;;5089673;28;20013;-79
2022/08/08 10:24:59;;;;;;;2.08;1.50;;;;;;;;;;5055631;28;20826;-80
2022/08/08 10:27:28;;;;;;;3.38;2.08;;;;;;;;;;5086098;28;20033;-79
2022/08/08 10:29:59;;;;;;;3.08;2.20;;;;;;;;;;5054807;28;20097;-79
2022/08/08 10:32:35;;;;;;;2.78;2.13;;;;;;;;;;5088895;28;20111;-79
2022/08/08 10:35:06;;;;;;;2.50;2.30;;;;;;;;;;5088979;28;20021;-80
2022/08/08 10:37:33;;;;;;;2.50;1.98;;;;;;;;;;5073626;28;20470;-78
2022/08/08 10:39:59;;;;;;;4.15;2.65;;;;;;;;;;5072017;28;20020;-79
2022/08/08 10:42:33;;;;;;;2.97;2.25;;;;;;;;;;5088995;28;20021;-79
2022/08/08 10:45:03;;;;;;;7.75;3.38;;;;;;;;;;5073325;28;20017;-79
2022/08/08 10:47:29;;;;;;;3.92;2.50;;;;;;;;;;5072625;28;20039;-80
2022/08/08 10:49:56;;;;;;;2.47;2.28;;;;;;;;;;5072654;28;20028;-80
2022/08/08 10:52:32;;;;;;;2.45;2.25;;;;;;;;;;5088717;28;20028;-79
2022/08/08 10:54:59;;;;;;;3.00;2.65;;;;;;;;;;5088146;28;20029;-79
2022/08/08 10:57:25;;;;;;;2.30;2.10;;;;;;;;;;5071993;28;20021;-80
2022/08/08 10:59:52;;;;;;;2.25;2.05;;;;;;;;;;5071318;28;20505;-79
2022/08/08 11:02:26;;;;;;;2.53;1.80;;;;;;;;;;5066801;28;20067;-79
2022/08/08 11:04:52;;;;;;;3.38;2.20;;;;;;;;;;5083275;28;20025;-79
2022/08/08 11:07:31;;;;;;;3.30;2.10;;;;;;;;;;5065939;28;20028;-79
2022/08/08 11:10:05;;;;;;;2.13;1.92;;;;;;;;;;5071156;28;20071;-81
2022/08/08 11:12:43;;;;;;;2.70;2.50;;;;;;;;;;5052116;28;20030;-80
2022/08/08 11:15:12;;;;;;;3.85;2.40;;;;;;;;;;5071223;28;20103;-80
2022/08/08 11:17:38;;;;;;;;;;;;;;;;;;5071054;28;20016;-79
2022/08/08 11:20:04;;;;;;;2.30;2.10;;;;;;;;;;5072365;28;20324;-80
2022/08/08 11:22:30;;;;;;;2.65;2.20;;;;;;;;;;5087259;28;20301;-80
2022/08/08 11:25:00;;;;;;;2.15;1.90;;;;;;;;;;5088165;28;20049;-79
2022/08/08 11:27:31;;;;;;;2.63;2.42;;;;;;;;;;5087583;28;20021;-79
2022/08/08 11:29:57;;;;;;;2.97;2.20;;;;;;;;;;5069471;28;20041;-80
2022/08/08 11:32:29;;;;;;;2.10;1.90;;;;;;;;;;5087717;28;20024;-79
2022/08/08 11:35:01;;;;;;;3.30;1.77;;;;;;;;;;5074153;28;20024;-80
2022/08/08 11:37:28;;;;;;;3.35;2.30;;;;;;;;;;5066797;28;20052;-80
2022/08/08 11:39:55;;;;;;;3.05;2.20;;;;;;;;;;5071124;28;20059;-80
2022/08/08 11:42:24;;;;;;;4.60;2.40;;;;;;;;;;5054852;28;20024;-80
2022/08/08 11:44:51;;;;;;;;;;;;;;;;;;5041111;28;20452;-80
2022/08/08 11:47:17;;;;;;;2.42;2.08;;;;;;;;;;5052930;28;19913;-79
2022/08/08 11:49:43;;;;;;;3.45;2.30;;;;;;;;;;5087235;28;20040;-78
2022/08/08 11:52:09;;;;;;;2.80;2.13;;;;;;;;;;5085384;28;20028;-79
2022/08/08 11:54:35;;;;;;;2.78;2.20;;;;;;;;;;5086677;28;20128;-79
2022/08/08 11:57:09;;;;;;;2.60;2.15;;;;;;;;;;5054857;28;20099;-84
2022/08/08 11:59:37;;;;;;;2.35;2.13;;;;;;;;;;5054083;28;20024;-85
2022/08/08 12:02:06;;;;;;;3.10;2.20;;;;;;;;;;5052137;28;20028;-85
2022/08/08 12:04:32;;;;;;;3.10;1.90;;;;;;;;;;5070801;28;20624;-84
2022/08/08 12:07:03;;;;;;;2.85;2.22;;;;;;;;;;5072306;28;20065;-84
2022/08/08 12:09:29;;;;;;;1.80;1.70;;;;;;;;;;5083723;28;20115;-84
2022/08/08 12:11:55;;;;;;;2.15;1.95;;;;;;;;;;5087240;28;20044;-85
2022/08/08 12:14:24;;;;;;;2.17;1.95;;;;;;;;;;5072080;28;20054;-85
2022/08/08 12:16:54;;;;;;;3.45;2.55;;;;;;;;;;5071299;28;20104;-85
2022/08/08 12:19:20;;;;;;;2.40;2.20;;;;;;;;;;5083591;28;20027;-84
2022/08/08 12:21:47;;;;;;;2.75;2.13;;;;;;;;;;5071337;28;20133;-84
2022/08/08 12:24:14;;;;;;;4.22;2.38;;;;;;;;;;5081224;28;20043;-85
2022/08/08 12:26:47;;;;;;;4.57;2.25;;;;;;;;;;5074431;28;20055;-85
2022/08/08 12:29:25;;;;;;;3.00;2.10;;;;;;;;;;5052938;28;20033;-85
2022/08/08 12:32:01;;;;;;;3.95;2.30;;;;;;;;;;5054962;28;20028;-85
2022/08/08 12:34:49;;;;;;;3.08;1.83;;;;;;;;;;5053963;28;20024;-84
2022/08/08 12:37:19;;;;;;;2.50;2.00;;;;;;;;;;5068266;28;20036;-85
2022/08/08 12:39:45;;;;;;;2.60;2.30;;;;;;;;;;5081420;28;20028;-81
2022/08/08 12:42:11;;;;;;;2.42;1.92;;;;;;;;;;5083017;28;20074;-82
2022/08/08 12:44:40;;;;;;;2.72;2.20;;;;;;;;;;5079115;28;20024;-83
2022/08/08 12:47:06;;;;;;;2.85;1.90;;;;;;;;;;5069077;28;20025;-82
2022/08/08 12:49:35;;;;;;;2.67;2.00;;;;;;;;;;5069515;28;20041;-82
2022/08/08 12:52:02;;;;;;;2.60;2.05;;;;;;;;;;5081590;28;20048;-82
2022/08/08 12:54:31;;;;;;;5.10;2.28;;;;;;;;;;5072627;28;20055;-82
2022/08/08 12:56:58;;;;;;;2.55;2.28;;;;;;;;;;5069657;28;20187;-82
2022/08/08 12:59:25;;;;;;;2.83;2.42;;;;;;;;;;5071481;28;20558;-82
2022/08/08 13:01:55;;;;;;;2.70;2.20;;;;;;;;;;5052175;28;20036;-82
2022/08/08 13:04:25;;;;;;;2.88;2.05;;;;;;;;;;5083635;28;20069;-82
2022/08/08 13:07:00;;;;;;;3.47;2.17;;;;;;;;;;5068771;28;20085;-83
2022/08/08 13:09:29;;;;;;;2.70;2.38;;;;;;;;;;5069113;28;20262;-81
2022/08/08 13:11:55;;;;;;;2.58;2.13;;;;;;;;;;5083523;28;20391;-82
2022/08/08 13:14:21;;;;;;;4.65;2.40;;;;;;;;;;5068883;28;20055;-81
2022/08/08 13:16:47;;;;;;;2.88;2.15;;;;;;;;;;5053624;28;20032;-82
2022/08/08 13:19:14;;;;;;;4.25;2.90;;;;;;;;;;5085399;28;20043;-82
2022/08/08 13:21:47;;;;;;;2.40;1.73;;;;;;;;;;5053819;28;20025;-82
2022/08/08 13:24:13;;;;;;;2.90;2.10;;;;;;;;;;5087269;28;20032;-82
2022/08/08 13:26:39;;;;;;;4.78;2.33;;;;;;;;;;5058865;28;20565;-82
2022/08/08 13:29:09;;;;;;;2.42;2.10;;;;;;;;;;5056695;28;20077;-81
2022/08/08 13:31:35;;;;;;;2.47;2.25;;;;;;;;;;5050000;28;20402;-82
2022/08/08 13:34:02;;;;;;;2.85;2.25;;;;;;;;;;5052235;28;20028;-81
2022/08/08 13:36:28;;;;;;;2.88;2.10;;;;;;;;;;5054664;28;20025;-83
2022/08/08 13:38:55;;;;;;;3.50;2.45;;;;;;;;;;5073441;28;20090;-82
2022/08/08 13:41:21;;;;;;;2.88;2.08;;;;;;;;;;5055929;28;20024;-84
2022/08/08 13:43:47;;;;;;;2.40;2.20;;;;;;;;;;5089385;28;20024;-82
2022/08/08 13:46:14;;;;;;;5.10;2.40;;;;;;;;;;5089861;28;20032;-82
2022/08/08 13:48:52;;;;;;;5.75;2.42;;;;;;;;;;5086408;28;20372;-81
2022/08/08 13:51:18;;;;;;;2.65;2.13;;;;;;;;;;5074150;28;20028;-81
2022/08/08 13:53:54;;;;;;;3.05;2.28;;;;;;;;;;5071339;28;20085;-82
2022/08/08 13:56:30;;;;;;;2.95;2.03;;;;;;;;;;5072354;28;20033;-83
2022/08/08 13:58:56;;;;;;;3.05;1.88;;;;;;;;;;5072051;28;20028;-84
2022/08/08 14:01:26;;;;;;;4.10;2.30;;;;;;;;;;5046645;28;20020;-82
2022/08/08 14:03:58;;;;;;;2.53;2.00;;;;;;;;;;5085097;28;20452;-82
2022/08/08 14:06:25;;;;;;;2.55;1.90;;;;;;;;;;5065371;28;20066;-83
2022/08/08 14:08:51;;;;;;;4.43;2.13;;;;;;;;;;5048338;28;20025;-83
2022/08/08 14:11:18;;;;;;;3.35;1.88;;;;;;;;;;5086155;28;20098;-84
2022/08/08 14:13:58;;;;;;;2.25;1.90;;;;;;;;;;5071518;28;20107;-82
2022/08/08 14:16:24;;;;;;;5.40;2.00;;;;;;;;;;5088288;28;20064;-81
2022/08/08 14:18:51;;;;;;;2.75;2.15;;;;;;;;;;5072235;28;20056;-82
2022/08/08 14:21:17;;;;;;;2.90;1.90;;;;;;;;;;5071558;28;20070;-82
2022/08/08 14:23:43;;;;;;;2.70;1.98;;;;;;;;;;5085544;28;20044;-82
2022/08/08 14:26:20;;;;;;;4.78;2.65;;;;;;;;;;5067625;28;20064;-81
2022/08/08 14:28:53;;;;;;;3.20;2.10;;;;;;;;;;5088028;28;20099;-83
2022/08/08 14:31:19;;;;;;;2.75;2.00;;;;;;;;;;5077777;28;20455;-83
2022/08/08 14:33:50;;;;;;;1.70;1.60;;;;;;;;;;5071208;28;20383;-82
2022/08/08 14:36:16;;;;;;;3.45;1.90;;;;;;;;;;5090729;28;20039;-82
2022/08/08 14:38:42;;;;;;;7.55;2.30;;;;;;;;;;5101522;28;20025;-82
2022/08/08 14:41:12;;;;;;;1.88;1.67;;;;;;;;;;5066129;28;20170;-83
2022/08/08 14:43:46;;;;;;;2.10;1.63;;;;;;;;;;5074867;28;20024;-82
2022/08/08 14:46:31;;;;;;;3.33;1.73;;;;;;;;;;5085863;28;20063;-83
2022/08/08 14:48:58;;;;;;;2.10;1.90;;;;;;;;;;5089431;28;20469;-82
2022/08/08 14:51:24;;;;;;;1.50;1.30;;;;;;;;;;5086613;28;20090;-82
2022/08/08 14:53:51;;;;;;;3.13;1.65;;;;;;;;;;5087423;28;20020;-82
2022/08/08 14:56:17;;;;;;;2.30;1.70;;;;;;;;;;5087262;28;20111;-81
2022/08/08 14:58:46;;;;;;;3.30;1.50;;;;;;;;;;5056894;28;20024;-82
2022/08/08 15:01:12;;;;;;;1.98;1.60;;;;;;;;;;5084810;28;20023;-82
2022/08/08 15:03:38;;;;;;;3.65;1.80;;;;;;;;;;5072323;28;20033;-81
2022/08/08 15:06:04;;;;;;;3.00;1.63;;;;;;;;;;5068251;28;20019;-82
2022/08/08 15:08:33;;;;;;;2.13;1.30;;;;;;;;;;5066592;28;20017;-82